Carl, Iowa
Current Conditions -  °F | °C
As of 5:15 AM on Saturday 22 Nov 2014 (Local Time) from KCSQ Reporting Station
Moderate Fog Moderate Fog  
Wind Chill: 32°   Ceiling: 200
Heat Index: 39°   Visibility: 0.25mi
Dew Point: 39°   Wind: 12mph
Humidity: 100%   Direction: 210°SSW
Pressure: 29.92"   Gusts: NA
Location:  41.0285°N, 94.7568°W
Report Text: KCSQ 221115Z AUTO 21010KT 1/4SM FG OVC002 04/04 A2992 RMK AO2
Loading
Personal Weather Stations






























Interactive Weather Map New forecast layout! Learn more

10-Day Weather Forecast

Advertisements
Track Severe Weather on mobile